createdAt,value
2022-09-12T00:01:17.709Z,56.07
2022-09-12T00:03:46.867Z,56.14
2022-09-12T00:06:23.442Z,56.00
2022-09-12T00:09:04.877Z,56.04
2022-09-12T00:11:38.902Z,55.90
2022-09-12T00:14:12.424Z,56.07
2022-09-12T00:16:42.069Z,55.67
2022-09-12T00:19:12.928Z,56.20
2022-09-12T00:21:42.214Z,56.38
2022-09-12T00:24:12.254Z,56.46
2022-09-12T00:26:42.207Z,56.08
2022-09-12T00:29:20.733Z,56.67
2022-09-12T00:31:48.984Z,56.31
2022-09-12T00:34:20.935Z,56.11
2022-09-12T00:36:49.677Z,55.97
2022-09-12T00:39:18.805Z,56.65
2022-09-12T00:41:52.970Z,56.15
2022-09-12T00:44:45.149Z,56.34
2022-09-12T00:47:24.041Z,56.34
2022-09-12T00:50:07.937Z,56.20
2022-09-12T00:53:01.498Z,55.91
2022-09-12T00:55:45.039Z,55.92
2022-09-12T00:58:21.575Z,56.17
2022-09-12T01:00:49.576Z,55.94
2022-09-12T01:03:19.769Z,56.40
2022-09-12T01:06:00.190Z,56.91
2022-09-12T01:08:29.139Z,56.82
2022-09-12T01:10:57.998Z,57.31
2022-09-12T01:13:26.110Z,56.71
2022-09-12T01:15:54.499Z,57.04
2022-09-12T01:18:24.683Z,57.51
2022-09-12T01:21:01.373Z,57.04
2022-09-12T01:23:47.276Z,57.62
2022-09-12T01:26:43.260Z,57.50
2022-09-12T01:29:48.030Z,57.30
2022-09-12T01:32:36.352Z,57.47
2022-09-12T01:35:23.280Z,57.79
2022-09-12T01:38:24.550Z,57.57
2022-09-12T01:41:10.127Z,58.00
2022-09-12T01:44:07.147Z,58.09
2022-09-12T01:47:08.814Z,58.20
2022-09-12T01:50:07.850Z,57.82
2022-09-12T01:52:59.578Z,57.92
2022-09-12T01:55:47.045Z,58.20
2022-09-12T01:58:27.096Z,57.85
2022-09-12T02:01:06.455Z,57.89
2022-09-12T02:03:43.705Z,57.58
2022-09-12T02:06:19.560Z,57.69
2022-09-12T02:08:55.014Z,57.25
2022-09-12T02:11:22.704Z,57.43
2022-09-12T02:13:56.000Z,57.92
2022-09-12T02:16:31.557Z,57.87
2022-09-12T02:19:13.480Z,58.02
2022-09-12T02:22:04.245Z,58.15
2022-09-12T02:24:35.328Z,57.93
2022-09-12T02:27:15.320Z,57.73
2022-09-12T02:29:45.254Z,58.04
2022-09-12T02:32:34.508Z,57.90
2022-09-12T02:35:18.690Z,58.24
2022-09-12T02:38:07.853Z,57.98
2022-09-12T02:40:36.286Z,57.94
2022-09-12T02:43:05.915Z,57.50
2022-09-12T02:45:37.147Z,58.12
2022-09-12T02:48:19.491Z,57.49
2022-09-12T02:50:47.145Z,57.57
2022-09-12T02:53:14.599Z,57.43
2022-09-12T02:55:43.579Z,57.82
2022-09-12T02:58:18.731Z,57.44
2022-09-12T03:01:01.656Z,58.14
2022-09-12T03:03:52.419Z,58.15
2022-09-12T03:06:32.003Z,58.54
2022-09-12T03:09:05.055Z,57.73
2022-09-12T03:11:44.335Z,58.02
2022-09-12T03:14:31.646Z,57.58
2022-09-12T03:17:27.057Z,57.66
2022-09-12T03:20:22.214Z,57.78
2022-09-12T03:22:54.624Z,57.96
2022-09-12T03:25:35.250Z,57.85
2022-09-12T03:28:10.594Z,58.39
2022-09-12T03:30:43.467Z,58.31
2022-09-12T03:33:19.973Z,57.88
2022-09-12T03:35:48.998Z,57.71
2022-09-12T03:38:16.704Z,57.87
2022-09-12T03:40:44.225Z,58.08
2022-09-12T03:43:11.551Z,57.91
2022-09-12T03:45:39.204Z,57.79
2022-09-12T03:48:07.355Z,57.53
2022-09-12T03:50:35.122Z,57.66
2022-09-12T03:53:03.549Z,57.86
2022-09-12T03:55:31.403Z,57.77
2022-09-12T03:57:58.649Z,57.25
2022-09-12T04:00:31.342Z,57.48
2022-09-12T04:02:58.403Z,57.59
2022-09-12T04:05:26.398Z,57.20
2022-09-12T04:07:53.470Z,57.19
2022-09-12T04:10:20.862Z,57.47
2022-09-12T04:12:48.095Z,56.97
2022-09-12T04:15:15.531Z,56.99
2022-09-12T04:17:42.617Z,57.18
2022-09-12T04:20:10.059Z,57.60
2022-09-12T04:22:37.185Z,57.67
2022-09-12T04:25:04.452Z,57.62
2022-09-12T04:27:31.794Z,57.77
2022-09-12T04:30:00.687Z,57.70
2022-09-12T04:32:29.292Z,58.01
2022-09-12T04:34:56.687Z,57.71
2022-09-12T04:37:24.821Z,57.46
2022-09-12T04:39:54.442Z,57.90
2022-09-12T04:42:21.619Z,57.77
2022-09-12T04:44:49.288Z,57.81
2022-09-12T04:47:17.167Z,57.30
2022-09-12T04:49:44.248Z,57.62
2022-09-12T04:52:11.531Z,57.71
2022-09-12T04:54:38.886Z,58.07
2022-09-12T04:57:06.054Z,58.07
2022-09-12T04:59:36.257Z,58.06
2022-09-12T05:02:06.168Z,58.36
2022-09-12T05:04:36.519Z,58.62
2022-09-12T05:07:07.174Z,58.00
2022-09-12T05:09:35.540Z,58.10
2022-09-12T05:12:04.996Z,58.12
2022-09-12T05:14:33.824Z,57.81
2022-09-12T05:17:02.042Z,58.45
2022-09-12T05:19:30.693Z,58.11
2022-09-12T05:22:00.654Z,57.89
2022-09-12T05:24:28.136Z,58.39
2022-09-12T05:26:55.266Z,58.14
2022-09-12T05:29:22.417Z,58.00
2022-09-12T05:31:52.455Z,58.12
2022-09-12T05:34:20.577Z,58.31
2022-09-12T05:36:47.916Z,58.25
2022-09-12T05:39:15.352Z,58.17
2022-09-12T05:41:42.492Z,58.71
2022-09-12T05:44:14.330Z,58.48
2022-09-12T05:46:44.528Z,58.39
2022-09-12T05:49:13.703Z,58.22
2022-09-12T05:51:43.215Z,58.22
2022-09-12T05:54:12.727Z,58.42
2022-09-12T05:56:44.235Z,58.50
2022-09-12T05:59:17.442Z,58.94
2022-09-12T06:01:49.322Z,58.50
2022-09-12T06:04:17.871Z,58.54
2022-09-12T06:06:45.791Z,58.10
2022-09-12T06:09:17.345Z,58.37
2022-09-12T06:11:46.216Z,58.13
2022-09-12T06:14:15.814Z,58.02
2022-09-12T06:16:47.518Z,57.88
2022-09-12T06:19:19.913Z,58.03
2022-09-12T06:21:49.943Z,57.89
2022-09-12T06:24:18.536Z,57.51
2022-09-12T06:26:45.798Z,57.24
2022-09-12T06:29:14.513Z,57.52
2022-09-12T06:31:43.774Z,57.67
2022-09-12T06:34:17.306Z,57.34
2022-09-12T06:36:47.429Z,57.42
2022-09-12T06:39:19.913Z,57.98
2022-09-12T06:41:48.762Z,58.06
2022-09-12T06:44:21.275Z,57.88
2022-09-12T06:46:49.231Z,57.45
2022-09-12T06:49:19.533Z,57.10
2022-09-12T06:51:46.995Z,57.37
2022-09-12T06:54:17.437Z,57.83
2022-09-12T06:56:47.644Z,57.65
2022-09-12T06:59:14.986Z,57.52
2022-09-12T07:01:45.283Z,57.20
2022-09-12T07:04:16.878Z,57.37
2022-09-12T07:06:52.460Z,56.87
2022-09-12T07:09:19.747Z,56.63
2022-09-12T07:11:47.915Z,56.48
2022-09-12T07:14:15.981Z,56.30
2022-09-12T07:16:46.363Z,56.46
2022-09-12T07:19:13.616Z,56.42
2022-09-12T07:21:41.465Z,56.32
2022-09-12T07:24:11.824Z,56.27
2022-09-12T07:26:40.898Z,55.88
2022-09-12T07:29:35.389Z,55.69
2022-09-12T07:32:02.078Z,55.87
2022-09-12T07:34:29.176Z,55.72
2022-09-12T07:36:56.424Z,55.17
2022-09-12T07:39:23.518Z,55.36
2022-09-12T07:41:50.942Z,55.31
2022-09-12T07:44:18.032Z,55.54
2022-09-12T07:46:45.234Z,54.86
2022-09-12T07:49:12.555Z,54.87
2022-09-12T07:51:39.738Z,54.91
2022-09-12T07:54:10.623Z,54.60
2022-09-12T07:56:39.339Z,54.46
2022-09-12T07:59:07.712Z,54.27
2022-09-12T08:01:35.430Z,53.46
2022-09-12T08:04:03.681Z,53.03
2022-09-12T08:06:32.296Z,53.22
2022-09-12T08:09:00.341Z,53.02
2022-09-12T08:11:38.647Z,52.99
2022-09-12T08:14:05.931Z,52.60
2022-09-12T08:16:38.994Z,52.37
2022-09-12T08:19:06.205Z,52.16
2022-09-12T08:21:34.273Z,52.38
2022-09-12T08:24:09.226Z,51.64
2022-09-12T08:26:36.441Z,51.59
2022-09-12T08:29:04.534Z,51.19
2022-09-12T08:31:37.969Z,50.64
2022-09-12T08:34:06.042Z,50.76
2022-09-12T08:36:34.041Z,50.41
2022-09-12T08:39:05.066Z,49.98
2022-09-12T08:41:35.441Z,49.97
2022-09-12T08:44:19.514Z,50.00
2022-09-12T08:47:14.344Z,49.22
2022-09-12T08:49:59.922Z,49.09
2022-09-12T08:52:45.182Z,48.55
2022-09-12T08:55:31.710Z,49.15
2022-09-12T08:58:20.499Z,48.80
2022-09-12T09:01:32.609Z,48.07
2022-09-12T09:04:32.818Z,48.12
2022-09-12T09:07:44.914Z,48.32
2022-09-12T09:10:15.244Z,48.64
2022-09-12T09:12:42.602Z,48.90
2022-09-12T09:15:37.700Z,49.07
2022-09-12T09:18:20.364Z,50.10
2022-09-12T09:20:47.776Z,50.18
2022-09-12T09:23:27.703Z,50.08
2022-09-12T09:26:00.603Z,49.93
2022-09-12T09:28:42.654Z,49.96
2022-09-12T09:31:19.235Z,50.24
2022-09-12T09:33:52.457Z,50.11
2022-09-12T09:36:52.533Z,51.24
2022-09-12T09:39:47.491Z,51.72
2022-09-12T09:42:20.893Z,52.66
2022-09-12T09:44:49.257Z,50.99
2022-09-12T09:47:18.535Z,51.10
2022-09-12T09:49:46.384Z,50.10
2022-09-12T09:52:17.448Z,49.80
2022-09-12T09:54:49.751Z,49.30
2022-09-12T09:57:35.089Z,48.33
2022-09-12T10:00:32.860Z,47.66
2022-09-12T10:03:14.749Z,48.83
2022-09-12T10:05:53.949Z,48.18
2022-09-12T10:08:26.567Z,48.06
2022-09-12T10:11:17.056Z,48.05
2022-09-12T10:13:58.174Z,46.88
2022-09-12T10:16:29.533Z,46.57
2022-09-12T10:19:00.654Z,47.00
2022-09-12T10:21:48.650Z,46.50
2022-09-12T10:24:31.135Z,46.64
2022-09-12T10:27:06.169Z,47.10
2022-09-12T10:29:48.643Z,46.46
2022-09-12T10:32:36.578Z,47.09
2022-09-12T10:35:12.617Z,46.73
2022-09-12T10:37:43.887Z,45.23
2022-09-12T10:40:24.613Z,45.62
2022-09-12T10:42:57.683Z,45.30
2022-09-12T10:45:25.048Z,45.13
2022-09-12T10:47:54.466Z,45.73
2022-09-12T10:50:44.158Z,44.45
2022-09-12T10:53:21.464Z,45.26
2022-09-12T10:56:10.561Z,44.49
2022-09-12T10:59:24.584Z,44.21
2022-09-12T11:02:15.115Z,42.96
2022-09-12T11:04:58.314Z,42.62
2022-09-12T11:07:31.588Z,43.22
2022-09-12T11:10:21.473Z,43.32
2022-09-12T11:13:04.498Z,44.63
2022-09-12T11:15:53.514Z,46.28
2022-09-12T11:18:52.473Z,45.51
2022-09-12T11:21:45.641Z,44.73
2022-09-12T11:24:24.135Z,44.29
2022-09-12T11:26:51.501Z,44.21
2022-09-12T11:29:30.819Z,44.64
2022-09-12T11:32:11.565Z,45.28
2022-09-12T11:35:18.285Z,45.58
2022-09-12T11:38:18.392Z,45.36
2022-09-12T11:41:10.031Z,45.35
2022-09-12T11:43:54.878Z,45.13
2022-09-12T11:46:40.763Z,44.94
2022-09-12T11:49:13.791Z,45.20
2022-09-12T11:52:02.562Z,45.68
2022-09-12T11:54:58.112Z,45.66
2022-09-12T11:57:40.250Z,45.42
2022-09-12T12:00:24.879Z,43.32
2022-09-12T12:03:03.638Z,42.36
2022-09-12T12:05:52.541Z,44.14
2022-09-12T12:08:25.383Z,45.42
2022-09-12T12:10:59.877Z,44.99
2022-09-12T12:13:47.204Z,44.50
2022-09-12T12:16:34.928Z,45.13
2022-09-12T12:19:10.696Z,45.75
2022-09-12T12:21:55.061Z,43.82
2022-09-12T12:24:25.287Z,44.12
2022-09-12T12:27:01.195Z,42.97
2022-09-12T12:29:44.331Z,43.02
2022-09-12T12:32:11.731Z,42.52
2022-09-12T12:34:41.898Z,43.67
2022-09-12T12:37:23.146Z,43.46
2022-09-12T12:39:51.258Z,44.52
2022-09-12T12:42:36.596Z,43.99
2022-09-12T12:45:13.431Z,43.47
2022-09-12T12:47:49.276Z,42.59
2022-09-12T12:50:16.648Z,43.15
2022-09-12T12:52:46.844Z,42.57
2022-09-12T12:55:39.007Z,42.16
2022-09-12T12:58:22.323Z,41.83
2022-09-12T13:01:11.675Z,42.40
2022-09-12T13:03:46.866Z,43.06
2022-09-12T13:06:54.072Z,42.88
2022-09-12T13:09:30.111Z,43.42
2022-09-12T13:12:10.863Z,44.89
2022-09-12T13:14:47.368Z,44.06
2022-09-12T13:17:27.069Z,44.46
2022-09-12T13:20:26.784Z,43.40
2022-09-12T13:22:53.434Z,43.88
2022-09-12T13:25:35.674Z,42.37
2022-09-12T13:28:15.287Z,43.82
2022-09-12T13:30:56.238Z,43.56
2022-09-12T13:33:49.817Z,44.30
2022-09-12T13:36:48.493Z,45.03
2022-09-12T13:39:36.887Z,46.74
2022-09-12T13:42:22.850Z,47.36
2022-09-12T13:45:07.990Z,47.16
2022-09-12T13:47:38.875Z,47.26
2022-09-12T13:50:09.308Z,49.55
2022-09-12T13:52:38.823Z,49.59
2022-09-12T13:55:15.582Z,50.36
2022-09-12T13:57:45.166Z,50.26
2022-09-12T14:00:20.589Z,49.99
2022-09-12T14:03:08.844Z,50.05
2022-09-12T14:05:38.545Z,51.82
2022-09-12T14:08:08.884Z,52.13
2022-09-12T14:10:40.769Z,51.91
2022-09-12T14:13:26.091Z,52.54
2022-09-12T14:15:56.327Z,51.58
2022-09-12T14:18:38.320Z,51.18
2022-09-12T14:21:38.049Z,51.83
2022-09-12T14:24:10.606Z,51.57
2022-09-12T14:26:40.711Z,50.90
2022-09-12T14:29:17.205Z,49.56
2022-09-12T14:31:45.090Z,50.70
2022-09-12T14:34:19.847Z,51.04
2022-09-12T14:36:50.489Z,51.16
2022-09-12T14:39:17.879Z,51.42
2022-09-12T14:41:46.797Z,53.52
2022-09-12T14:44:26.624Z,52.14
2022-09-12T14:46:54.275Z,51.26
2022-09-12T14:49:34.938Z,51.80
2022-09-12T14:52:08.906Z,51.29
2022-09-12T14:54:38.367Z,50.23
2022-09-12T14:57:42.458Z,50.91
2022-09-12T15:00:21.223Z,49.08
2022-09-12T15:02:53.744Z,49.32
2022-09-12T15:05:24.953Z,49.79
2022-09-12T15:08:00.339Z,50.33
2022-09-12T15:10:38.021Z,49.87
2022-09-12T15:13:16.976Z,51.26
2022-09-12T15:15:47.100Z,52.24
2022-09-12T15:18:15.288Z,51.79
2022-09-12T15:20:48.006Z,53.48
2022-09-12T15:23:26.330Z,54.35
2022-09-12T15:25:53.979Z,53.91
2022-09-12T15:28:24.411Z,54.95
2022-09-12T15:30:55.472Z,53.88
2022-09-12T15:33:25.574Z,54.08
2022-09-12T15:35:54.311Z,52.96
2022-09-12T15:38:26.379Z,53.12
2022-09-12T15:40:54.861Z,53.15
2022-09-12T15:43:23.117Z,52.13
2022-09-12T15:45:51.974Z,53.10
2022-09-12T15:48:21.236Z,52.83
2022-09-12T15:50:48.829Z,51.44
2022-09-12T15:53:18.402Z,52.71
2022-09-12T15:55:48.890Z,53.79
2022-09-12T15:58:18.597Z,54.72
2022-09-12T16:00:46.237Z,54.22
2022-09-12T16:03:25.275Z,54.00
2022-09-12T16:06:01.846Z,54.29
2022-09-12T16:08:31.696Z,54.51
2022-09-12T16:11:20.804Z,54.82
2022-09-12T16:13:52.955Z,54.27
2022-09-12T16:16:20.689Z,54.21
2022-09-12T16:18:51.476Z,54.29
2022-09-12T16:21:21.069Z,54.02
2022-09-12T16:23:51.121Z,54.44
2022-09-12T16:26:26.074Z,54.22
2022-09-12T16:29:00.250Z,54.85
2022-09-12T16:31:29.196Z,54.24
2022-09-12T16:33:56.602Z,53.42
2022-09-12T16:36:24.064Z,54.69
2022-09-12T16:38:53.663Z,54.74
2022-09-12T16:41:25.524Z,54.04
2022-09-12T16:43:53.388Z,53.38
2022-09-12T16:46:23.743Z,54.37
2022-09-12T16:48:53.860Z,53.87
2022-09-12T16:51:24.134Z,53.63
2022-09-12T16:54:00.743Z,54.68
2022-09-12T16:56:29.031Z,53.90
2022-09-12T16:58:56.594Z,53.55
2022-09-12T17:01:26.620Z,53.89
2022-09-12T17:04:04.886Z,53.90
2022-09-12T17:06:33.495Z,55.08
2022-09-12T17:09:03.018Z,54.16
2022-09-12T17:11:33.657Z,54.43
2022-09-12T17:14:06.078Z,53.88
2022-09-12T17:16:36.899Z,54.59
2022-09-12T17:19:05.418Z,54.72
2022-09-12T17:21:32.981Z,54.25
2022-09-12T17:24:00.642Z,53.73
2022-09-12T17:26:27.984Z,54.47
2022-09-12T17:28:55.236Z,54.40
2022-09-12T17:31:22.373Z,53.58
2022-09-12T17:33:49.774Z,53.59
2022-09-12T17:36:21.902Z,53.64
2022-09-12T17:38:50.116Z,53.85
2022-09-12T17:41:20.123Z,54.05
2022-09-12T17:43:51.174Z,53.23
2022-09-12T17:46:20.173Z,53.98
2022-09-12T17:48:59.472Z,53.70
2022-09-12T17:51:30.946Z,53.54
2022-09-12T17:54:06.262Z,53.18
2022-09-12T17:56:37.574Z,52.78
2022-09-12T17:59:06.069Z,52.98
2022-09-12T18:02:18.254Z,53.36
2022-09-12T18:05:01.557Z,53.38
2022-09-12T18:07:38.958Z,53.32
2022-09-12T18:10:37.113Z,52.69
2022-09-12T18:13:08.496Z,52.70
2022-09-12T18:15:36.559Z,52.43
2022-09-12T18:18:04.555Z,53.18
2022-09-12T18:20:35.022Z,52.23
2022-09-12T18:23:04.630Z,52.34
2022-09-12T18:25:34.222Z,51.88
2022-09-12T18:28:02.627Z,52.10
2022-09-12T18:30:31.422Z,51.87
2022-09-12T18:32:58.682Z,52.04
2022-09-12T18:35:25.837Z,51.67
2022-09-12T18:37:56.122Z,51.77
2022-09-12T18:40:23.474Z,51.89
2022-09-12T18:42:51.767Z,51.62
2022-09-12T18:45:19.078Z,51.67
2022-09-12T18:47:46.469Z,51.92
2022-09-12T18:50:13.736Z,51.65
2022-09-12T18:52:41.089Z,51.57
2022-09-12T18:55:08.600Z,51.37
2022-09-12T18:57:39.218Z,51.50
2022-09-12T19:00:12.758Z,51.43
2022-09-12T19:02:40.072Z,51.96
2022-09-12T19:05:13.161Z,51.55
2022-09-12T19:07:40.427Z,51.66
2022-09-12T19:10:10.311Z,51.61
2022-09-12T19:12:40.608Z,51.71
2022-09-12T19:15:11.569Z,51.82
2022-09-12T19:17:42.273Z,51.81
2022-09-12T19:20:16.214Z,51.89
2022-09-12T19:22:47.375Z,51.90
2022-09-12T19:25:15.000Z,52.15
2022-09-12T19:27:45.598Z,51.74
2022-09-12T19:30:13.223Z,51.65
2022-09-12T19:32:43.156Z,52.00
2022-09-12T19:35:14.576Z,52.25
2022-09-12T19:37:41.793Z,52.35
2022-09-12T19:40:12.023Z,52.69
2022-09-12T19:42:41.234Z,52.60
2022-09-12T19:45:08.835Z,52.84
2022-09-12T19:47:36.062Z,52.65
2022-09-12T19:50:29.152Z,52.94
2022-09-12T19:52:56.721Z,53.07
2022-09-12T19:55:26.442Z,53.04
2022-09-12T19:57:56.426Z,52.98
2022-09-12T20:00:24.361Z,53.11
2022-09-12T20:02:53.922Z,53.26
2022-09-12T20:05:22.555Z,53.02
2022-09-12T20:07:51.918Z,52.92
2022-09-12T20:13:18.289Z,52.96
2022-09-12T20:15:46.107Z,52.99
2022-09-12T20:18:21.281Z,52.82
2022-09-12T20:20:50.962Z,52.96
2022-09-12T20:23:18.642Z,53.04
2022-09-12T20:25:51.906Z,52.97
2022-09-12T20:28:19.644Z,53.29
2022-09-12T20:30:50.219Z,53.13
2022-09-12T20:33:17.844Z,52.85
2022-09-12T20:35:47.534Z,53.37
2022-09-12T20:38:14.949Z,53.21
2022-09-12T20:40:49.524Z,53.07
2022-09-12T20:43:19.643Z,53.27
2022-09-12T20:45:47.331Z,53.33
2022-09-12T20:48:21.019Z,53.80
2022-09-12T20:50:52.000Z,53.17
2022-09-12T20:53:22.483Z,53.21
2022-09-12T20:55:54.014Z,53.55
2022-09-12T20:58:25.004Z,53.35
2022-09-12T21:00:52.724Z,53.41
2022-09-12T21:03:23.278Z,53.42
2022-09-12T21:05:53.984Z,53.13
2022-09-12T21:08:21.386Z,52.71
2022-09-12T21:10:51.286Z,52.99
2022-09-12T21:13:18.726Z,52.65
2022-09-12T21:15:48.922Z,52.80
2022-09-12T21:18:16.632Z,52.24
2022-09-12T21:20:44.598Z,52.37
2022-09-12T21:23:12.146Z,52.14
2022-09-12T21:25:40.276Z,52.04
2022-09-12T21:28:15.588Z,52.11
2022-09-12T21:30:44.862Z,52.01
2022-09-12T21:33:15.944Z,52.01
2022-09-12T21:35:44.134Z,52.19
2022-09-12T21:38:12.059Z,51.90
2022-09-12T21:40:39.736Z,51.94
2022-09-12T21:43:11.880Z,52.06
2022-09-12T21:45:41.169Z,52.02
2022-09-12T21:48:08.430Z,52.07
2022-09-12T21:50:38.155Z,51.94
2022-09-12T21:53:05.909Z,52.03
2022-09-12T21:55:33.317Z,52.17
2022-09-12T21:58:00.653Z,52.05
2022-09-12T22:00:31.182Z,51.91
2022-09-12T22:02:59.318Z,52.24
2022-09-12T22:05:30.288Z,52.37
2022-09-12T22:08:01.014Z,52.81
2022-09-12T22:10:33.421Z,52.99
2022-09-12T22:13:01.206Z,52.78
2022-09-12T22:15:46.669Z,52.36
2022-09-12T22:18:14.600Z,52.98
2022-09-12T22:20:41.812Z,52.62
2022-09-12T22:23:30.945Z,53.10
2022-09-12T22:26:00.734Z,53.60
2022-09-12T22:28:30.538Z,53.21
2022-09-12T22:30:58.776Z,53.97
2022-09-12T22:33:30.622Z,53.72
2022-09-12T22:35:58.146Z,53.98
2022-09-12T22:38:26.291Z,54.13
2022-09-12T22:40:53.565Z,54.09
2022-09-12T22:43:20.661Z,54.11
2022-09-12T22:45:48.029Z,53.52
2022-09-12T22:48:17.452Z,53.32
2022-09-12T22:50:45.736Z,53.93
2022-09-12T22:53:12.842Z,53.78
2022-09-12T22:55:40.136Z,53.69
2022-09-12T22:58:07.401Z,53.74
2022-09-12T23:00:35.299Z,53.52
2022-09-12T23:03:02.855Z,53.51
2022-09-12T23:05:30.453Z,53.88
2022-09-12T23:07:57.534Z,54.09
2022-09-12T23:10:26.273Z,54.24
2022-09-12T23:12:55.220Z,53.99
2022-09-12T23:15:22.341Z,53.84
2022-09-12T23:17:49.574Z,54.21
2022-09-12T23:20:16.718Z,54.32
2022-09-12T23:22:43.718Z,53.96
2022-09-12T23:25:10.889Z,54.00
2022-09-12T23:27:40.279Z,53.93
2022-09-12T23:30:08.521Z,54.03
2022-09-12T23:32:38.837Z,53.86
2022-09-12T23:35:07.076Z,53.95
2022-09-12T23:37:34.199Z,54.08
2022-09-12T23:40:01.544Z,54.43
2022-09-12T23:42:28.663Z,53.93
2022-09-12T23:44:55.919Z,54.30
2022-09-12T23:47:22.972Z,54.32
2022-09-12T23:49:53.789Z,54.07
2022-09-12T23:52:21.001Z,54.40
2022-09-12T23:54:48.216Z,54.44
2022-09-12T23:57:16.616Z,54.42
